Littleton, NH

2:33 AM EDT on August 29, 2016 (GMT -0400)
Littleton NH | | Change Station

Elev 1076 ft 44.29 °N, 71.79 °W | Updated 9 minutes ago

Scattered Clouds
Scattered Clouds
71.7 °F
Feels Like 72 °F
N
0.0
Wind Variable Wind from SSW
Gusts 3.0 mph

Today
High -- | Low -- °F
--% Chance of Precip.
Yesterday
High -- | Low -- °F
Precip. -- in
Pressure 30.03 in
Visibility 9.0 miles
Clouds Scattered Clouds 5500 ft
Scattered Clouds 7500 ft
Heat Index 72 °F
Dew Point 66 °F
Humidity 81%
Rainfall 0.00 in
Snow Depth Not available.
6:07 AM 7:27 PM
Waning Crescent, 10% visible
METAR KHIE 290552Z AUTO 00000KT 9SM SCT055 SCT075 18/17 A3004 RMK AO2 SLP169 60011 T01780167 10244 20178 56014
Pressure 30.03 in
Visibility 9.0 miles
Clouds Scattered Clouds 5500 ft
Scattered Clouds 7500 ft
Heat Index 72 °F
Dew Point 66 °F
Humidity 81%
Rainfall 0.00 in
Snow Depth Not available.
6:07 AM 7:27 PM
Waning Crescent, 10% visible
METAR KHIE 290552Z AUTO 00000KT 9SM SCT055 SCT075 18/17 A3004 RMK AO2 SLP169 60011 T01780167 10244 20178 56014

10-Day Weather Forecast

Almanac

Astronomy

Aug. 29, 2016 Rise Set
Actual Time
Civil Twilight
Nautical Twilight
Astronomical Twilight
Moon
Length of Visible Light
Length of Day
Tomorrow will be .
, % of the Moon is Illuminated

Today's Extremes

State Highs State Lows

Community

WunderPhotos

Upload Photos

1,935,800 photos uploaded!

WunderBlog® & News

Nearby

Air Quality

  Air Quality AQ Index Pollutant
Not available.

Snow Depth

Station Depth Elevation

Earthquake Activity

City Distance Mag. Time & Date
Minimum magnitude displayed is 2.5.

Coastal Water Temperatures

Place Temperature

Stations

Nearby Weather Stations

Station Location Temp. Windchill Dew Point Humidity Wind Precip. Elev Updated Type
                   

Watches & Warnings

There are currently no watches in effect.